<?xml version="1.0" encoding="UTF-8" standalone="no" ?>
<gpx xmlns="http://www.topografix.com/GPX/1/1" xmlns:xsi="http://www.w3.org/2001/XMLSchema-instance" xsi:schemaLocation="http://www.topografix.com/GPX/1/1 http://www.topografix.com/GPX/1/1/gpx.xsd" version="1.1" creator="VisuGPX - https://www.visugpx.com">
  <metadata>
    <name>Autour de Lagnes</name>
    <desc><![CDATA[
Balade autour de Lagnes]]></desc>
  </metadata>
  <trk>
    <name><![CDATA[11047614-Lagnes à prévoir lundi - Reconnu]]></name>
    <trkseg>
      <trkpt lat="43.8921" lon="5.11391">
        <ele>117</ele>
        <time>2020-02-23T16:25:21Z</time>
      </trkpt>
      <trkpt lat="43.89216" lon="5.11375">
        <ele>116</ele>
        <time>2020-02-23T16:25:38Z</time>
      </trkpt>
      <trkpt lat="43.89189" lon="5.1135">
        <ele>115</ele>
        <time>2020-02-23T16:26:22Z</time>
      </trkpt>
      <trkpt lat="43.89177" lon="5.1133">
        <ele>115</ele>
        <time>2020-02-23T16:26:47Z</time>
      </trkpt>
      <trkpt lat="43.89146" lon="5.11333">
        <ele>116</ele>
        <time>2020-02-23T16:27:28Z</time>
      </trkpt>
      <trkpt lat="43.89108" lon="5.11342">
        <ele>118</ele>
        <time>2020-02-23T16:28:20Z</time>
      </trkpt>
      <trkpt lat="43.89088" lon="5.11356">
        <ele>119</ele>
        <time>2020-02-23T16:28:49Z</time>
      </trkpt>
      <trkpt lat="43.89069" lon="5.11365">
        <ele>121</ele>
        <time>2020-02-23T16:29:16Z</time>
      </trkpt>
      <trkpt lat="43.89053" lon="5.11383">
        <ele>124</ele>
        <time>2020-02-23T16:29:44Z</time>
      </trkpt>
      <trkpt lat="43.89041" lon="5.11402">
        <ele>126</ele>
        <time>2020-02-23T16:30:08Z</time>
      </trkpt>
      <trkpt lat="43.89018" lon="5.11454">
        <ele>134</ele>
        <time>2020-02-23T16:31:07Z</time>
      </trkpt>
      <trkpt lat="43.88991" lon="5.11496">
        <ele>140</ele>
        <time>2020-02-23T16:32:01Z</time>
      </trkpt>
      <trkpt lat="43.88985" lon="5.11509">
        <ele>142</ele>
        <time>2020-02-23T16:32:16Z</time>
      </trkpt>
      <trkpt lat="43.88964" lon="5.11582">
        <ele>149</ele>
        <time>2020-02-23T16:33:31Z</time>
      </trkpt>
      <trkpt lat="43.88929" lon="5.11648">
        <ele>150</ele>
        <time>2020-02-23T16:34:50Z</time>
      </trkpt>
      <trkpt lat="43.88914" lon="5.11667">
        <ele>151</ele>
        <time>2020-02-23T16:35:17Z</time>
      </trkpt>
      <trkpt lat="43.88904" lon="5.1167">
        <ele>153</ele>
        <time>2020-02-23T16:35:31Z</time>
      </trkpt>
      <trkpt lat="43.88898" lon="5.11659">
        <ele>153</ele>
        <time>2020-02-23T16:35:44Z</time>
      </trkpt>
      <trkpt lat="43.88882" lon="5.11655">
        <ele>155</ele>
        <time>2020-02-23T16:36:06Z</time>
      </trkpt>
      <trkpt lat="43.8886" lon="5.11661">
        <ele>157</ele>
        <time>2020-02-23T16:36:36Z</time>
      </trkpt>
      <trkpt lat="43.88835" lon="5.11662">
        <ele>160</ele>
        <time>2020-02-23T16:37:09Z</time>
      </trkpt>
      <trkpt lat="43.88816" lon="5.11668">
        <ele>160</ele>
        <time>2020-02-23T16:37:35Z</time>
      </trkpt>
      <trkpt lat="43.88794" lon="5.11671">
        <ele>160</ele>
        <time>2020-02-23T16:38:05Z</time>
      </trkpt>
      <trkpt lat="43.88781" lon="5.11687">
        <ele>161</ele>
        <time>2020-02-23T16:38:28Z</time>
      </trkpt>
      <trkpt lat="43.88761" lon="5.11723">
        <ele>164</ele>
        <time>2020-02-23T16:39:12Z</time>
      </trkpt>
      <trkpt lat="43.88769" lon="5.1171">
        <ele>163</ele>
        <time>2020-02-23T16:39:28Z</time>
      </trkpt>
      <trkpt lat="43.88778" lon="5.11719">
        <ele>164</ele>
        <time>2020-02-23T16:39:43Z</time>
      </trkpt>
      <trkpt lat="43.88793" lon="5.11742">
        <ele>165</ele>
        <time>2020-02-23T16:40:13Z</time>
      </trkpt>
      <trkpt lat="43.88793" lon="5.1175">
        <ele>165</ele>
        <time>2020-02-23T16:40:20Z</time>
      </trkpt>
      <trkpt lat="43.88788" lon="5.11765">
        <ele>168</ele>
        <time>2020-02-23T16:40:36Z</time>
      </trkpt>
      <trkpt lat="43.88771" lon="5.11798">
        <ele>173</ele>
        <time>2020-02-23T16:41:15Z</time>
      </trkpt>
      <trkpt lat="43.88758" lon="5.11838">
        <ele>178</ele>
        <time>2020-02-23T16:41:57Z</time>
      </trkpt>
      <trkpt lat="43.88744" lon="5.11854">
        <ele>181</ele>
        <time>2020-02-23T16:42:22Z</time>
      </trkpt>
      <trkpt lat="43.88725" lon="5.11868">
        <ele>182</ele>
        <time>2020-02-23T16:42:50Z</time>
      </trkpt>
      <trkpt lat="43.88721" lon="5.11873">
        <ele>182</ele>
        <time>2020-02-23T16:42:58Z</time>
      </trkpt>
      <trkpt lat="43.88723" lon="5.11873">
        <ele>182</ele>
        <time>2020-02-23T16:43:00Z</time>
      </trkpt>
      <trkpt lat="43.8872" lon="5.11873">
        <ele>182</ele>
        <time>2020-02-23T16:43:04Z</time>
      </trkpt>
      <trkpt lat="43.88702" lon="5.119">
        <ele>185</ele>
        <time>2020-02-23T16:43:40Z</time>
      </trkpt>
      <trkpt lat="43.88714" lon="5.11922">
        <ele>188</ele>
        <time>2020-02-23T16:44:06Z</time>
      </trkpt>
      <trkpt lat="43.88723" lon="5.1193">
        <ele>189</ele>
        <time>2020-02-23T16:44:20Z</time>
      </trkpt>
      <trkpt lat="43.88736" lon="5.11948">
        <ele>192</ele>
        <time>2020-02-23T16:44:45Z</time>
      </trkpt>
      <trkpt lat="43.88756" lon="5.11943">
        <ele>193</ele>
        <time>2020-02-23T16:45:12Z</time>
      </trkpt>
      <trkpt lat="43.88762" lon="5.11956">
        <ele>195</ele>
        <time>2020-02-23T16:45:27Z</time>
      </trkpt>
      <trkpt lat="43.88781" lon="5.11965">
        <ele>197</ele>
        <time>2020-02-23T16:45:54Z</time>
      </trkpt>
      <trkpt lat="43.88787" lon="5.11984">
        <ele>200</ele>
        <time>2020-02-23T16:46:14Z</time>
      </trkpt>
      <trkpt lat="43.88791" lon="5.11988">
        <ele>201</ele>
        <time>2020-02-23T16:46:20Z</time>
      </trkpt>
      <trkpt lat="43.888" lon="5.11985">
        <ele>201</ele>
        <time>2020-02-23T16:46:33Z</time>
      </trkpt>
      <trkpt lat="43.88804" lon="5.11976">
        <ele>200</ele>
        <time>2020-02-23T16:46:43Z</time>
      </trkpt>
      <trkpt lat="43.88823" lon="5.11989">
        <ele>203</ele>
        <time>2020-02-23T16:47:11Z</time>
      </trkpt>
      <trkpt lat="43.88851" lon="5.11999">
        <ele>204</ele>
        <time>2020-02-23T16:47:50Z</time>
      </trkpt>
      <trkpt lat="43.88888" lon="5.11996">
        <ele>202</ele>
        <time>2020-02-23T16:48:39Z</time>
      </trkpt>
      <trkpt lat="43.88907" lon="5.12003">
        <ele>203</ele>
        <time>2020-02-23T16:49:05Z</time>
      </trkpt>
      <trkpt lat="43.88912" lon="5.12012">
        <ele>204</ele>
        <time>2020-02-23T16:49:16Z</time>
      </trkpt>
      <trkpt lat="43.88921" lon="5.12014">
        <ele>203</ele>
        <time>2020-02-23T16:49:28Z</time>
      </trkpt>
      <trkpt lat="43.88925" lon="5.12021">
        <ele>203</ele>
        <time>2020-02-23T16:49:37Z</time>
      </trkpt>
      <trkpt lat="43.88957" lon="5.12035">
        <ele>199</ele>
        <time>2020-02-23T16:50:22Z</time>
      </trkpt>
      <trkpt lat="43.88961" lon="5.12034">
        <ele>198</ele>
        <time>2020-02-23T16:50:27Z</time>
      </trkpt>
      <trkpt lat="43.8898" lon="5.12055">
        <ele>198</ele>
        <time>2020-02-23T16:51:00Z</time>
      </trkpt>
      <trkpt lat="43.88996" lon="5.12079">
        <ele>201</ele>
        <time>2020-02-23T16:51:31Z</time>
      </trkpt>
      <trkpt lat="43.89003" lon="5.12084">
        <ele>200</ele>
        <time>2020-02-23T16:51:41Z</time>
      </trkpt>
      <trkpt lat="43.89027" lon="5.12117">
        <ele>199</ele>
        <time>2020-02-23T16:52:27Z</time>
      </trkpt>
      <trkpt lat="43.89037" lon="5.12138">
        <ele>200</ele>
        <time>2020-02-23T16:52:51Z</time>
      </trkpt>
      <trkpt lat="43.8904" lon="5.1215">
        <ele>202</ele>
        <time>2020-02-23T16:53:03Z</time>
      </trkpt>
      <trkpt lat="43.89061" lon="5.1218">
        <ele>201</ele>
        <time>2020-02-23T16:53:43Z</time>
      </trkpt>
      <trkpt lat="43.89067" lon="5.12201">
        <ele>202</ele>
        <time>2020-02-23T16:54:05Z</time>
      </trkpt>
      <trkpt lat="43.89074" lon="5.12219">
        <ele>203</ele>
        <time>2020-02-23T16:54:25Z</time>
      </trkpt>
      <trkpt lat="43.89082" lon="5.1223">
        <ele>203</ele>
        <time>2020-02-23T16:54:40Z</time>
      </trkpt>
      <trkpt lat="43.89085" lon="5.12242">
        <ele>204</ele>
        <time>2020-02-23T16:54:52Z</time>
      </trkpt>
      <trkpt lat="43.89087" lon="5.12283">
        <ele>208</ele>
        <time>2020-02-23T16:55:31Z</time>
      </trkpt>
      <trkpt lat="43.89097" lon="5.12317">
        <ele>211</ele>
        <time>2020-02-23T16:56:07Z</time>
      </trkpt>
      <trkpt lat="43.89095" lon="5.12338">
        <ele>213</ele>
        <time>2020-02-23T16:56:27Z</time>
      </trkpt>
      <trkpt lat="43.89098" lon="5.12344">
        <ele>214</ele>
        <time>2020-02-23T16:56:34Z</time>
      </trkpt>
      <trkpt lat="43.89114" lon="5.12352">
        <ele>213</ele>
        <time>2020-02-23T16:56:57Z</time>
      </trkpt>
      <trkpt lat="43.89125" lon="5.12354">
        <ele>213</ele>
        <time>2020-02-23T16:57:12Z</time>
      </trkpt>
      <trkpt lat="43.89128" lon="5.12357">
        <ele>213</ele>
        <time>2020-02-23T16:57:16Z</time>
      </trkpt>
      <trkpt lat="43.89132" lon="5.1237">
        <ele>214</ele>
        <time>2020-02-23T16:57:30Z</time>
      </trkpt>
      <trkpt lat="43.89148" lon="5.12385">
        <ele>215</ele>
        <time>2020-02-23T16:57:56Z</time>
      </trkpt>
      <trkpt lat="43.89148" lon="5.12394">
        <ele>216</ele>
        <time>2020-02-23T16:58:05Z</time>
      </trkpt>
      <trkpt lat="43.89141" lon="5.12406">
        <ele>218</ele>
        <time>2020-02-23T16:58:19Z</time>
      </trkpt>
      <trkpt lat="43.89157" lon="5.12449">
        <ele>221</ele>
        <time>2020-02-23T16:59:06Z</time>
      </trkpt>
      <trkpt lat="43.89156" lon="5.12456">
        <ele>221</ele>
        <time>2020-02-23T16:59:13Z</time>
      </trkpt>
      <trkpt lat="43.89159" lon="5.1247">
        <ele>222</ele>
        <time>2020-02-23T16:59:27Z</time>
      </trkpt>
      <trkpt lat="43.89171" lon="5.1249">
        <ele>223</ele>
        <time>2020-02-23T16:59:52Z</time>
      </trkpt>
      <trkpt lat="43.89171" lon="5.125">
        <ele>224</ele>
        <time>2020-02-23T17:00:01Z</time>
      </trkpt>
      <trkpt lat="43.89197" lon="5.12526">
        <ele>224</ele>
        <time>2020-02-23T17:00:44Z</time>
      </trkpt>
      <trkpt lat="43.89203" lon="5.12525">
        <ele>223</ele>
        <time>2020-02-23T17:00:52Z</time>
      </trkpt>
      <trkpt lat="43.89213" lon="5.12532">
        <ele>224</ele>
        <time>2020-02-23T17:01:07Z</time>
      </trkpt>
      <trkpt lat="43.89221" lon="5.12531">
        <ele>223</ele>
        <time>2020-02-23T17:01:18Z</time>
      </trkpt>
      <trkpt lat="43.89233" lon="5.12534">
        <ele>223</ele>
        <time>2020-02-23T17:01:34Z</time>
      </trkpt>
      <trkpt lat="43.89237" lon="5.12526">
        <ele>222</ele>
        <time>2020-02-23T17:01:44Z</time>
      </trkpt>
      <trkpt lat="43.89262" lon="5.12515">
        <ele>219</ele>
        <time>2020-02-23T17:02:19Z</time>
      </trkpt>
      <trkpt lat="43.89268" lon="5.12527">
        <ele>222</ele>
        <time>2020-02-23T17:02:33Z</time>
      </trkpt>
      <trkpt lat="43.8928" lon="5.12527">
        <ele>222</ele>
        <time>2020-02-23T17:02:49Z</time>
      </trkpt>
      <trkpt lat="43.89284" lon="5.12522">
        <ele>221</ele>
        <time>2020-02-23T17:02:56Z</time>
      </trkpt>
      <trkpt lat="43.89291" lon="5.12519">
        <ele>221</ele>
        <time>2020-02-23T17:03:06Z</time>
      </trkpt>
      <trkpt lat="43.89303" lon="5.1252">
        <ele>222</ele>
        <time>2020-02-23T17:03:22Z</time>
      </trkpt>
      <trkpt lat="43.89312" lon="5.12513">
        <ele>221</ele>
        <time>2020-02-23T17:03:35Z</time>
      </trkpt>
      <trkpt lat="43.89322" lon="5.12509">
        <ele>221</ele>
        <time>2020-02-23T17:03:49Z</time>
      </trkpt>
      <trkpt lat="43.89323" lon="5.12503">
        <ele>221</ele>
        <time>2020-02-23T17:03:55Z</time>
      </trkpt>
      <trkpt lat="43.89342" lon="5.12479">
        <ele>214</ele>
        <time>2020-02-23T17:04:30Z</time>
      </trkpt>
      <trkpt lat="43.89348" lon="5.12476">
        <ele>212</ele>
        <time>2020-02-23T17:04:38Z</time>
      </trkpt>
      <trkpt lat="43.89351" lon="5.12471">
        <ele>211</ele>
        <time>2020-02-23T17:04:44Z</time>
      </trkpt>
      <trkpt lat="43.89372" lon="5.1247">
        <ele>207</ele>
        <time>2020-02-23T17:05:12Z</time>
      </trkpt>
      <trkpt lat="43.8939" lon="5.12487">
        <ele>206</ele>
        <time>2020-02-23T17:05:41Z</time>
      </trkpt>
      <trkpt lat="43.89382" lon="5.12476">
        <ele>206</ele>
        <time>2020-02-23T17:05:56Z</time>
      </trkpt>
      <trkpt lat="43.89389" lon="5.12468">
        <ele>203</ele>
        <time>2020-02-23T17:06:09Z</time>
      </trkpt>
      <trkpt lat="43.89386" lon="5.12458">
        <ele>202</ele>
        <time>2020-02-23T17:06:19Z</time>
      </trkpt>
      <trkpt lat="43.89376" lon="5.12452">
        <ele>203</ele>
        <time>2020-02-23T17:06:33Z</time>
      </trkpt>
      <trkpt lat="43.89379" lon="5.12443">
        <ele>201</ele>
        <time>2020-02-23T17:06:43Z</time>
      </trkpt>
      <trkpt lat="43.89374" lon="5.12432">
        <ele>199</ele>
        <time>2020-02-23T17:06:56Z</time>
      </trkpt>
      <trkpt lat="43.89375" lon="5.12423">
        <ele>198</ele>
        <time>2020-02-23T17:07:04Z</time>
      </trkpt>
      <trkpt lat="43.89412" lon="5.12435">
        <ele>195</ele>
        <time>2020-02-23T17:07:55Z</time>
      </trkpt>
      <trkpt lat="43.89419" lon="5.12443">
        <ele>195</ele>
        <time>2020-02-23T17:08:07Z</time>
      </trkpt>
      <trkpt lat="43.89448" lon="5.12455">
        <ele>197</ele>
        <time>2020-02-23T17:08:47Z</time>
      </trkpt>
      <trkpt lat="43.89464" lon="5.12442">
        <ele>196</ele>
        <time>2020-02-23T17:09:12Z</time>
      </trkpt>
      <trkpt lat="43.89484" lon="5.12331">
        <ele>184</ele>
        <time>2020-02-23T17:11:02Z</time>
      </trkpt>
      <trkpt lat="43.89487" lon="5.12278">
        <ele>182</ele>
        <time>2020-02-23T17:11:53Z</time>
      </trkpt>
      <trkpt lat="43.89493" lon="5.12254">
        <ele>181</ele>
        <time>2020-02-23T17:12:18Z</time>
      </trkpt>
      <trkpt lat="43.89502" lon="5.12227">
        <ele>181</ele>
        <time>2020-02-23T17:12:46Z</time>
      </trkpt>
      <trkpt lat="43.89506" lon="5.12221">
        <ele>180</ele>
        <time>2020-02-23T17:12:54Z</time>
      </trkpt>
      <trkpt lat="43.89519" lon="5.12207">
        <ele>180</ele>
        <time>2020-02-23T17:13:16Z</time>
      </trkpt>
      <trkpt lat="43.89528" lon="5.12201">
        <ele>179</ele>
        <time>2020-02-23T17:13:30Z</time>
      </trkpt>
      <trkpt lat="43.89535" lon="5.12204">
        <ele>180</ele>
        <time>2020-02-23T17:13:39Z</time>
      </trkpt>
      <trkpt lat="43.89544" lon="5.12214">
        <ele>181</ele>
        <time>2020-02-23T17:13:55Z</time>
      </trkpt>
      <trkpt lat="43.89552" lon="5.12244">
        <ele>185</ele>
        <time>2020-02-23T17:14:25Z</time>
      </trkpt>
      <trkpt lat="43.89562" lon="5.12262">
        <ele>188</ele>
        <time>2020-02-23T17:14:47Z</time>
      </trkpt>
      <trkpt lat="43.896" lon="5.12288">
        <ele>192</ele>
        <time>2020-02-23T17:15:44Z</time>
      </trkpt>
      <trkpt lat="43.89649" lon="5.1234">
        <ele>202</ele>
        <time>2020-02-23T17:17:06Z</time>
      </trkpt>
      <trkpt lat="43.89695" lon="5.12369">
        <ele>206</ele>
        <time>2020-02-23T17:18:14Z</time>
      </trkpt>
      <trkpt lat="43.89767" lon="5.12452">
        <ele>216</ele>
        <time>2020-02-23T17:20:18Z</time>
      </trkpt>
      <trkpt lat="43.89781" lon="5.12471">
        <ele>215</ele>
        <time>2020-02-23T17:20:45Z</time>
      </trkpt>
      <trkpt lat="43.89786" lon="5.12495">
        <ele>217</ele>
        <time>2020-02-23T17:21:09Z</time>
      </trkpt>
      <trkpt lat="43.89779" lon="5.12498">
        <ele>220</ele>
        <time>2020-02-23T17:21:18Z</time>
      </trkpt>
      <trkpt lat="43.89758" lon="5.1248">
        <ele>223</ele>
        <time>2020-02-23T17:21:51Z</time>
      </trkpt>
      <trkpt lat="43.89734" lon="5.12469">
        <ele>224</ele>
        <time>2020-02-23T17:22:25Z</time>
      </trkpt>
      <trkpt lat="43.89714" lon="5.12472">
        <ele>224</ele>
        <time>2020-02-23T17:22:52Z</time>
      </trkpt>
      <trkpt lat="43.89743" lon="5.12522">
        <ele>230</ele>
        <time>2020-02-23T17:23:54Z</time>
      </trkpt>
      <trkpt lat="43.89739" lon="5.12548">
        <ele>232</ele>
        <time>2020-02-23T17:24:19Z</time>
      </trkpt>
      <trkpt lat="43.89726" lon="5.12568">
        <ele>234</ele>
        <time>2020-02-23T17:24:45Z</time>
      </trkpt>
      <trkpt lat="43.8971" lon="5.12609">
        <ele>239</ele>
        <time>2020-02-23T17:25:30Z</time>
      </trkpt>
      <trkpt lat="43.89697" lon="5.12634">
        <ele>243</ele>
        <time>2020-02-23T17:26:00Z</time>
      </trkpt>
      <trkpt lat="43.89696" lon="5.12645">
        <ele>244</ele>
        <time>2020-02-23T17:26:10Z</time>
      </trkpt>
      <trkpt lat="43.89704" lon="5.12648">
        <ele>244</ele>
        <time>2020-02-23T17:26:21Z</time>
      </trkpt>
      <trkpt lat="43.8973" lon="5.12672">
        <ele>244</ele>
        <time>2020-02-23T17:27:03Z</time>
      </trkpt>
      <trkpt lat="43.89739" lon="5.12687">
        <ele>245</ele>
        <time>2020-02-23T17:27:22Z</time>
      </trkpt>
      <trkpt lat="43.89745" lon="5.12711">
        <ele>247</ele>
        <time>2020-02-23T17:27:46Z</time>
      </trkpt>
      <trkpt lat="43.89751" lon="5.12723">
        <ele>248</ele>
        <time>2020-02-23T17:28:00Z</time>
      </trkpt>
      <trkpt lat="43.89763" lon="5.12738">
        <ele>247</ele>
        <time>2020-02-23T17:28:22Z</time>
      </trkpt>
      <trkpt lat="43.89772" lon="5.12814">
        <ele>251</ele>
        <time>2020-02-23T17:29:36Z</time>
      </trkpt>
      <trkpt lat="43.89784" lon="5.12864">
        <ele>254</ele>
        <time>2020-02-23T17:30:27Z</time>
      </trkpt>
      <trkpt lat="43.89799" lon="5.12886">
        <ele>254</ele>
        <time>2020-02-23T17:30:56Z</time>
      </trkpt>
      <trkpt lat="43.89828" lon="5.12907">
        <ele>254</ele>
        <time>2020-02-23T17:31:39Z</time>
      </trkpt>
      <trkpt lat="43.89837" lon="5.12922">
        <ele>256</ele>
        <time>2020-02-23T17:31:58Z</time>
      </trkpt>
      <trkpt lat="43.8985" lon="5.12966">
        <ele>263</ele>
        <time>2020-02-23T17:32:44Z</time>
      </trkpt>
      <trkpt lat="43.89856" lon="5.13003">
        <ele>267</ele>
        <time>2020-02-23T17:33:20Z</time>
      </trkpt>
      <trkpt lat="43.89855" lon="5.13032">
        <ele>270</ele>
        <time>2020-02-23T17:33:48Z</time>
      </trkpt>
      <trkpt lat="43.89863" lon="5.13052">
        <ele>273</ele>
        <time>2020-02-23T17:34:10Z</time>
      </trkpt>
      <trkpt lat="43.89866" lon="5.13073">
        <ele>275</ele>
        <time>2020-02-23T17:34:31Z</time>
      </trkpt>
      <trkpt lat="43.8988" lon="5.13096">
        <ele>278</ele>
        <time>2020-02-23T17:35:00Z</time>
      </trkpt>
      <trkpt lat="43.8988" lon="5.13107">
        <ele>278</ele>
        <time>2020-02-23T17:35:10Z</time>
      </trkpt>
      <trkpt lat="43.89887" lon="5.13124">
        <ele>280</ele>
        <time>2020-02-23T17:35:29Z</time>
      </trkpt>
      <trkpt lat="43.89877" lon="5.13149">
        <ele>280</ele>
        <time>2020-02-23T17:35:57Z</time>
      </trkpt>
      <trkpt lat="43.89915" lon="5.13153">
        <ele>282</ele>
        <time>2020-02-23T17:36:47Z</time>
      </trkpt>
      <trkpt lat="43.89932" lon="5.13142">
        <ele>285</ele>
        <time>2020-02-23T17:37:12Z</time>
      </trkpt>
      <trkpt lat="43.8996" lon="5.13133">
        <ele>290</ele>
        <time>2020-02-23T17:37:51Z</time>
      </trkpt>
      <trkpt lat="43.89968" lon="5.13119">
        <ele>292</ele>
        <time>2020-02-23T17:38:08Z</time>
      </trkpt>
      <trkpt lat="43.89977" lon="5.13091">
        <ele>294</ele>
        <time>2020-02-23T17:38:38Z</time>
      </trkpt>
      <trkpt lat="43.8998" lon="5.13064">
        <ele>294</ele>
        <time>2020-02-23T17:39:04Z</time>
      </trkpt>
      <trkpt lat="43.89976" lon="5.13047">
        <ele>293</ele>
        <time>2020-02-23T17:39:21Z</time>
      </trkpt>
      <trkpt lat="43.89981" lon="5.1303">
        <ele>294</ele>
        <time>2020-02-23T17:39:39Z</time>
      </trkpt>
      <trkpt lat="43.89994" lon="5.13016">
        <ele>297</ele>
        <time>2020-02-23T17:40:01Z</time>
      </trkpt>
      <trkpt lat="43.90003" lon="5.12997">
        <ele>299</ele>
        <time>2020-02-23T17:40:22Z</time>
      </trkpt>
      <trkpt lat="43.90024" lon="5.12969">
        <ele>299</ele>
        <time>2020-02-23T17:41:01Z</time>
      </trkpt>
      <trkpt lat="43.90034" lon="5.1295">
        <ele>298</ele>
        <time>2020-02-23T17:41:24Z</time>
      </trkpt>
      <trkpt lat="43.90062" lon="5.12947">
        <ele>300</ele>
        <time>2020-02-23T17:42:01Z</time>
      </trkpt>
      <trkpt lat="43.90075" lon="5.12948">
        <ele>301</ele>
        <time>2020-02-23T17:42:19Z</time>
      </trkpt>
      <trkpt lat="43.90088" lon="5.12942">
        <ele>301</ele>
        <time>2020-02-23T17:42:37Z</time>
      </trkpt>
      <trkpt lat="43.90097" lon="5.12946">
        <ele>301</ele>
        <time>2020-02-23T17:42:50Z</time>
      </trkpt>
      <trkpt lat="43.90123" lon="5.12951">
        <ele>301</ele>
        <time>2020-02-23T17:43:25Z</time>
      </trkpt>
      <trkpt lat="43.90156" lon="5.12972">
        <ele>303</ele>
        <time>2020-02-23T17:44:13Z</time>
      </trkpt>
      <trkpt lat="43.90189" lon="5.13011">
        <ele>308</ele>
        <time>2020-02-23T17:45:11Z</time>
      </trkpt>
      <trkpt lat="43.90219" lon="5.13036">
        <ele>312</ele>
        <time>2020-02-23T17:45:58Z</time>
      </trkpt>
      <trkpt lat="43.90243" lon="5.13041">
        <ele>313</ele>
        <time>2020-02-23T17:46:30Z</time>
      </trkpt>
      <trkpt lat="43.90257" lon="5.13047">
        <ele>315</ele>
        <time>2020-02-23T17:46:50Z</time>
      </trkpt>
      <trkpt lat="43.9026" lon="5.13047">
        <ele>316</ele>
        <time>2020-02-23T17:46:54Z</time>
      </trkpt>
      <trkpt lat="43.90276" lon="5.13035">
        <ele>315</ele>
        <time>2020-02-23T17:47:18Z</time>
      </trkpt>
      <trkpt lat="43.90318" lon="5.13016">
        <ele>317</ele>
        <time>2020-02-23T17:48:17Z</time>
      </trkpt>
      <trkpt lat="43.90342" lon="5.13021">
        <ele>318</ele>
        <time>2020-02-23T17:48:49Z</time>
      </trkpt>
      <trkpt lat="43.90348" lon="5.13016">
        <ele>315</ele>
        <time>2020-02-23T17:48:59Z</time>
      </trkpt>
      <trkpt lat="43.90367" lon="5.13024">
        <ele>312</ele>
        <time>2020-02-23T17:49:25Z</time>
      </trkpt>
      <trkpt lat="43.90402" lon="5.13059">
        <ele>310</ele>
        <time>2020-02-23T17:50:23Z</time>
      </trkpt>
      <trkpt lat="43.9041" lon="5.13075">
        <ele>311</ele>
        <time>2020-02-23T17:50:41Z</time>
      </trkpt>
      <trkpt lat="43.90408" lon="5.13093">
        <ele>312</ele>
        <time>2020-02-23T17:50:59Z</time>
      </trkpt>
      <trkpt lat="43.90394" lon="5.13139">
        <ele>314</ele>
        <time>2020-02-23T17:51:47Z</time>
      </trkpt>
      <trkpt lat="43.90367" lon="5.13206">
        <ele>316</ele>
        <time>2020-02-23T17:53:01Z</time>
      </trkpt>
      <trkpt lat="43.90364" lon="5.13237">
        <ele>312</ele>
        <time>2020-02-23T17:53:31Z</time>
      </trkpt>
      <trkpt lat="43.90355" lon="5.13254">
        <ele>314</ele>
        <time>2020-02-23T17:53:51Z</time>
      </trkpt>
      <trkpt lat="43.9035" lon="5.13259">
        <ele>316</ele>
        <time>2020-02-23T17:53:59Z</time>
      </trkpt>
      <trkpt lat="43.90347" lon="5.13269">
        <ele>316</ele>
        <time>2020-02-23T17:54:10Z</time>
      </trkpt>
      <trkpt lat="43.90345" lon="5.13284">
        <ele>316</ele>
        <time>2020-02-23T17:54:24Z</time>
      </trkpt>
      <trkpt lat="43.90347" lon="5.13319">
        <ele>311</ele>
        <time>2020-02-23T17:54:58Z</time>
      </trkpt>
      <trkpt lat="43.90354" lon="5.13376">
        <ele>305</ele>
        <time>2020-02-23T17:55:54Z</time>
      </trkpt>
      <trkpt lat="43.90351" lon="5.13406">
        <ele>306</ele>
        <time>2020-02-23T17:56:23Z</time>
      </trkpt>
      <trkpt lat="43.90359" lon="5.13442">
        <ele>303</ele>
        <time>2020-02-23T17:56:59Z</time>
      </trkpt>
      <trkpt lat="43.90364" lon="5.13454">
        <ele>302</ele>
        <time>2020-02-23T17:57:12Z</time>
      </trkpt>
      <trkpt lat="43.90375" lon="5.13464">
        <ele>297</ele>
        <time>2020-02-23T17:57:30Z</time>
      </trkpt>
      <trkpt lat="43.9038" lon="5.13476">
        <ele>295</ele>
        <time>2020-02-23T17:57:43Z</time>
      </trkpt>
      <trkpt lat="43.90405" lon="5.13502">
        <ele>286</ele>
        <time>2020-02-23T17:58:25Z</time>
      </trkpt>
      <trkpt lat="43.90431" lon="5.13519">
        <ele>283</ele>
        <time>2020-02-23T17:59:03Z</time>
      </trkpt>
      <trkpt lat="43.90452" lon="5.13546">
        <ele>284</ele>
        <time>2020-02-23T17:59:42Z</time>
      </trkpt>
      <trkpt lat="43.90467" lon="5.13557">
        <ele>283</ele>
        <time>2020-02-23T18:00:04Z</time>
      </trkpt>
      <trkpt lat="43.90476" lon="5.13558">
        <ele>282</ele>
        <time>2020-02-23T18:00:16Z</time>
      </trkpt>
      <trkpt lat="43.90477" lon="5.13551">
        <ele>281</ele>
        <time>2020-02-23T18:00:23Z</time>
      </trkpt>
      <trkpt lat="43.90463" lon="5.13532">
        <ele>281</ele>
        <time>2020-02-23T18:00:49Z</time>
      </trkpt>
      <trkpt lat="43.90447" lon="5.13477">
        <ele>276</ele>
        <time>2020-02-23T18:01:46Z</time>
      </trkpt>
      <trkpt lat="43.90452" lon="5.13468">
        <ele>275</ele>
        <time>2020-02-23T18:01:57Z</time>
      </trkpt>
      <trkpt lat="43.90453" lon="5.13449">
        <ele>272</ele>
        <time>2020-02-23T18:02:15Z</time>
      </trkpt>
      <trkpt lat="43.90446" lon="5.13427">
        <ele>271</ele>
        <time>2020-02-23T18:02:39Z</time>
      </trkpt>
      <trkpt lat="43.90453" lon="5.13386">
        <ele>265</ele>
        <time>2020-02-23T18:03:19Z</time>
      </trkpt>
      <trkpt lat="43.90461" lon="5.13363">
        <ele>261</ele>
        <time>2020-02-23T18:03:44Z</time>
      </trkpt>
      <trkpt lat="43.90465" lon="5.13341">
        <ele>257</ele>
        <time>2020-02-23T18:04:05Z</time>
      </trkpt>
      <trkpt lat="43.90486" lon="5.13315">
        <ele>249</ele>
        <time>2020-02-23T18:04:43Z</time>
      </trkpt>
      <trkpt lat="43.90502" lon="5.1329">
        <ele>243</ele>
        <time>2020-02-23T18:05:15Z</time>
      </trkpt>
      <trkpt lat="43.9052" lon="5.13271">
        <ele>243</ele>
        <time>2020-02-23T18:05:45Z</time>
      </trkpt>
      <trkpt lat="43.90542" lon="5.13211">
        <ele>240</ele>
        <time>2020-02-23T18:06:50Z</time>
      </trkpt>
      <trkpt lat="43.90556" lon="5.13184">
        <ele>235</ele>
        <time>2020-02-23T18:07:22Z</time>
      </trkpt>
      <trkpt lat="43.90565" lon="5.13176">
        <ele>232</ele>
        <time>2020-02-23T18:07:36Z</time>
      </trkpt>
      <trkpt lat="43.90584" lon="5.13137">
        <ele>225</ele>
        <time>2020-02-23T18:08:22Z</time>
      </trkpt>
      <trkpt lat="43.90599" lon="5.13083">
        <ele>224</ele>
        <time>2020-02-23T18:09:17Z</time>
      </trkpt>
      <trkpt lat="43.90616" lon="5.13075">
        <ele>224</ele>
        <time>2020-02-23T18:09:41Z</time>
      </trkpt>
      <trkpt lat="43.90625" lon="5.13057">
        <ele>223</ele>
        <time>2020-02-23T18:10:02Z</time>
      </trkpt>
      <trkpt lat="43.90636" lon="5.13042">
        <ele>221</ele>
        <time>2020-02-23T18:10:23Z</time>
      </trkpt>
      <trkpt lat="43.90643" lon="5.13026">
        <ele>218</ele>
        <time>2020-02-23T18:10:41Z</time>
      </trkpt>
      <trkpt lat="43.90673" lon="5.12979">
        <ele>208</ele>
        <time>2020-02-23T18:11:41Z</time>
      </trkpt>
      <trkpt lat="43.90682" lon="5.12901">
        <ele>202</ele>
        <time>2020-02-23T18:12:57Z</time>
      </trkpt>
      <trkpt lat="43.90682" lon="5.12873">
        <ele>199</ele>
        <time>2020-02-23T18:13:24Z</time>
      </trkpt>
      <trkpt lat="43.90688" lon="5.12843">
        <ele>195</ele>
        <time>2020-02-23T18:13:54Z</time>
      </trkpt>
      <trkpt lat="43.90728" lon="5.12835">
        <ele>191</ele>
        <time>2020-02-23T18:14:48Z</time>
      </trkpt>
      <trkpt lat="43.90722" lon="5.12802">
        <ele>187</ele>
        <time>2020-02-23T18:15:21Z</time>
      </trkpt>
      <trkpt lat="43.90707" lon="5.12783">
        <ele>187</ele>
        <time>2020-02-23T18:15:48Z</time>
      </trkpt>
      <trkpt lat="43.90697" lon="5.12782">
        <ele>188</ele>
        <time>2020-02-23T18:16:01Z</time>
      </trkpt>
      <trkpt lat="43.90687" lon="5.12726">
        <ele>187</ele>
        <time>2020-02-23T18:16:57Z</time>
      </trkpt>
      <trkpt lat="43.90666" lon="5.12712">
        <ele>190</ele>
        <time>2020-02-23T18:17:28Z</time>
      </trkpt>
      <trkpt lat="43.90661" lon="5.12695">
        <ele>192</ele>
        <time>2020-02-23T18:17:45Z</time>
      </trkpt>
      <trkpt lat="43.90678" lon="5.12675">
        <ele>190</ele>
        <time>2020-02-23T18:18:15Z</time>
      </trkpt>
      <trkpt lat="43.90677" lon="5.12663">
        <ele>191</ele>
        <time>2020-02-23T18:18:27Z</time>
      </trkpt>
      <trkpt lat="43.90691" lon="5.12654">
        <ele>190</ele>
        <time>2020-02-23T18:18:47Z</time>
      </trkpt>
      <trkpt lat="43.90727" lon="5.12576">
        <ele>196</ele>
        <time>2020-02-23T18:20:16Z</time>
      </trkpt>
      <trkpt lat="43.90744" lon="5.12557">
        <ele>198</ele>
        <time>2020-02-23T18:20:45Z</time>
      </trkpt>
      <trkpt lat="43.90788" lon="5.1253">
        <ele>200</ele>
        <time>2020-02-23T18:21:50Z</time>
      </trkpt>
      <trkpt lat="43.90807" lon="5.12511">
        <ele>202</ele>
        <time>2020-02-23T18:22:21Z</time>
      </trkpt>
      <trkpt lat="43.90819" lon="5.12483">
        <ele>204</ele>
        <time>2020-02-23T18:22:52Z</time>
      </trkpt>
      <trkpt lat="43.9084" lon="5.12381">
        <ele>205</ele>
        <time>2020-02-23T18:24:34Z</time>
      </trkpt>
      <trkpt lat="43.90844" lon="5.12376">
        <ele>205</ele>
        <time>2020-02-23T18:24:41Z</time>
      </trkpt>
      <trkpt lat="43.90889" lon="5.12373">
        <ele>205</ele>
        <time>2020-02-23T18:25:42Z</time>
      </trkpt>
      <trkpt lat="43.90913" lon="5.12376">
        <ele>205</ele>
        <time>2020-02-23T18:26:14Z</time>
      </trkpt>
      <trkpt lat="43.90926" lon="5.1237">
        <ele>204</ele>
        <time>2020-02-23T18:26:32Z</time>
      </trkpt>
      <trkpt lat="43.90925" lon="5.12339">
        <ele>203</ele>
        <time>2020-02-23T18:27:02Z</time>
      </trkpt>
      <trkpt lat="43.90933" lon="5.12311">
        <ele>200</ele>
        <time>2020-02-23T18:27:31Z</time>
      </trkpt>
      <trkpt lat="43.90962" lon="5.12251">
        <ele>196</ele>
        <time>2020-02-23T18:28:40Z</time>
      </trkpt>
      <trkpt lat="43.90965" lon="5.12205">
        <ele>191</ele>
        <time>2020-02-23T18:29:25Z</time>
      </trkpt>
      <trkpt lat="43.9096" lon="5.1214">
        <ele>187</ele>
        <time>2020-02-23T18:30:27Z</time>
      </trkpt>
      <trkpt lat="43.90943" lon="5.12083">
        <ele>186</ele>
        <time>2020-02-23T18:31:27Z</time>
      </trkpt>
      <trkpt lat="43.90926" lon="5.12045">
        <ele>187</ele>
        <time>2020-02-23T18:32:10Z</time>
      </trkpt>
      <trkpt lat="43.9091" lon="5.12022">
        <ele>186</ele>
        <time>2020-02-23T18:32:41Z</time>
      </trkpt>
      <trkpt lat="43.90896" lon="5.11992">
        <ele>185</ele>
        <time>2020-02-23T18:33:15Z</time>
      </trkpt>
      <trkpt lat="43.90887" lon="5.11956">
        <ele>185</ele>
        <time>2020-02-23T18:33:52Z</time>
      </trkpt>
      <trkpt lat="43.9087" lon="5.11934">
        <ele>184</ele>
        <time>2020-02-23T18:34:23Z</time>
      </trkpt>
      <trkpt lat="43.90854" lon="5.11926">
        <ele>182</ele>
        <time>2020-02-23T18:34:45Z</time>
      </trkpt>
      <trkpt lat="43.9084" lon="5.11911">
        <ele>180</ele>
        <time>2020-02-23T18:35:09Z</time>
      </trkpt>
      <trkpt lat="43.90826" lon="5.11876">
        <ele>175</ele>
        <time>2020-02-23T18:35:47Z</time>
      </trkpt>
      <trkpt lat="43.90819" lon="5.11848">
        <ele>172</ele>
        <time>2020-02-23T18:36:16Z</time>
      </trkpt>
      <trkpt lat="43.90821" lon="5.11804">
        <ele>170</ele>
        <time>2020-02-23T18:36:58Z</time>
      </trkpt>
      <trkpt lat="43.90816" lon="5.1175">
        <ele>166</ele>
        <time>2020-02-23T18:37:51Z</time>
      </trkpt>
      <trkpt lat="43.90798" lon="5.11688">
        <ele>159</ele>
        <time>2020-02-23T18:38:55Z</time>
      </trkpt>
      <trkpt lat="43.90789" lon="5.11635">
        <ele>154</ele>
        <time>2020-02-23T18:39:47Z</time>
      </trkpt>
      <trkpt lat="43.90788" lon="5.11613">
        <ele>152</ele>
        <time>2020-02-23T18:40:08Z</time>
      </trkpt>
      <trkpt lat="43.9079" lon="5.11585">
        <ele>149</ele>
        <time>2020-02-23T18:40:35Z</time>
      </trkpt>
      <trkpt lat="43.90789" lon="5.11554">
        <ele>146</ele>
        <time>2020-02-23T18:41:05Z</time>
      </trkpt>
      <trkpt lat="43.90795" lon="5.11541">
        <ele>146</ele>
        <time>2020-02-23T18:41:20Z</time>
      </trkpt>
      <trkpt lat="43.90826" lon="5.11512">
        <ele>145</ele>
        <time>2020-02-23T18:42:10Z</time>
      </trkpt>
      <trkpt lat="43.90853" lon="5.11467">
        <ele>142</ele>
        <time>2020-02-23T18:43:06Z</time>
      </trkpt>
      <trkpt lat="43.90869" lon="5.11446">
        <ele>141</ele>
        <time>2020-02-23T18:43:36Z</time>
      </trkpt>
      <trkpt lat="43.90887" lon="5.11431">
        <ele>140</ele>
        <time>2020-02-23T18:44:04Z</time>
      </trkpt>
      <trkpt lat="43.90895" lon="5.11419">
        <ele>139</ele>
        <time>2020-02-23T18:44:19Z</time>
      </trkpt>
      <trkpt lat="43.90922" lon="5.11359">
        <ele>135</ele>
        <time>2020-02-23T18:45:27Z</time>
      </trkpt>
      <trkpt lat="43.90932" lon="5.11328">
        <ele>133</ele>
        <time>2020-02-23T18:46:00Z</time>
      </trkpt>
      <trkpt lat="43.9094" lon="5.11289">
        <ele>130</ele>
        <time>2020-02-23T18:46:39Z</time>
      </trkpt>
      <trkpt lat="43.90963" lon="5.11268">
        <ele>129</ele>
        <time>2020-02-23T18:47:16Z</time>
      </trkpt>
      <trkpt lat="43.90981" lon="5.11258">
        <ele>128</ele>
        <time>2020-02-23T18:47:42Z</time>
      </trkpt>
      <trkpt lat="43.90999" lon="5.11254">
        <ele>128</ele>
        <time>2020-02-23T18:48:06Z</time>
      </trkpt>
      <trkpt lat="43.9101" lon="5.11249">
        <ele>128</ele>
        <time>2020-02-23T18:48:21Z</time>
      </trkpt>
      <trkpt lat="43.91008" lon="5.11237">
        <ele>127</ele>
        <time>2020-02-23T18:48:33Z</time>
      </trkpt>
      <trkpt lat="43.90993" lon="5.1122">
        <ele>126</ele>
        <time>2020-02-23T18:48:59Z</time>
      </trkpt>
      <trkpt lat="43.90975" lon="5.11191">
        <ele>123</ele>
        <time>2020-02-23T18:49:36Z</time>
      </trkpt>
      <trkpt lat="43.90958" lon="5.11148">
        <ele>117</ele>
        <time>2020-02-23T18:50:23Z</time>
      </trkpt>
      <trkpt lat="43.90952" lon="5.11119">
        <ele>112</ele>
        <time>2020-02-23T18:50:52Z</time>
      </trkpt>
      <trkpt lat="43.90929" lon="5.11069">
        <ele>103</ele>
        <time>2020-02-23T18:51:49Z</time>
      </trkpt>
      <trkpt lat="43.90927" lon="5.11048">
        <ele>100</ele>
        <time>2020-02-23T18:52:09Z</time>
      </trkpt>
      <trkpt lat="43.90931" lon="5.11035">
        <ele>99</ele>
        <time>2020-02-23T18:52:23Z</time>
      </trkpt>
      <trkpt lat="43.90943" lon="5.11023">
        <ele>98</ele>
        <time>2020-02-23T18:52:43Z</time>
      </trkpt>
      <trkpt lat="43.9097" lon="5.11024">
        <ele>100</ele>
        <time>2020-02-23T18:53:19Z</time>
      </trkpt>
      <trkpt lat="43.90968" lon="5.11005">
        <ele>97</ele>
        <time>2020-02-23T18:53:37Z</time>
      </trkpt>
      <trkpt lat="43.90942" lon="5.11002">
        <ele>95</ele>
        <time>2020-02-23T18:54:12Z</time>
      </trkpt>
      <trkpt lat="43.90922" lon="5.11013">
        <ele>96</ele>
        <time>2020-02-23T18:54:41Z</time>
      </trkpt>
      <trkpt lat="43.90902" lon="5.11042">
        <ele>99</ele>
        <time>2020-02-23T18:55:19Z</time>
      </trkpt>
      <trkpt lat="43.90893" lon="5.11045">
        <ele>100</ele>
        <time>2020-02-23T18:55:32Z</time>
      </trkpt>
      <trkpt lat="43.90871" lon="5.11036">
        <ele>100</ele>
        <time>2020-02-23T18:56:02Z</time>
      </trkpt>
      <trkpt lat="43.90861" lon="5.11015">
        <ele>99</ele>
        <time>2020-02-23T18:56:27Z</time>
      </trkpt>
      <trkpt lat="43.9086" lon="5.11007">
        <ele>99</ele>
        <time>2020-02-23T18:56:34Z</time>
      </trkpt>
      <trkpt lat="43.90872" lon="5.10984">
        <ele>98</ele>
        <time>2020-02-23T18:57:02Z</time>
      </trkpt>
      <trkpt lat="43.90878" lon="5.10966">
        <ele>97</ele>
        <time>2020-02-23T18:57:21Z</time>
      </trkpt>
      <trkpt lat="43.9091" lon="5.10916">
        <ele>95</ele>
        <time>2020-02-23T18:58:25Z</time>
      </trkpt>
      <trkpt lat="43.90915" lon="5.10895">
        <ele>95</ele>
        <time>2020-02-23T18:58:46Z</time>
      </trkpt>
      <trkpt lat="43.90909" lon="5.10885">
        <ele>95</ele>
        <time>2020-02-23T18:58:59Z</time>
      </trkpt>
      <trkpt lat="43.90877" lon="5.10871">
        <ele>96</ele>
        <time>2020-02-23T18:59:44Z</time>
      </trkpt>
      <trkpt lat="43.90855" lon="5.10867">
        <ele>97</ele>
        <time>2020-02-23T19:00:13Z</time>
      </trkpt>
      <trkpt lat="43.90836" lon="5.10867">
        <ele>97</ele>
        <time>2020-02-23T19:00:39Z</time>
      </trkpt>
      <trkpt lat="43.90818" lon="5.10871">
        <ele>98</ele>
        <time>2020-02-23T19:01:03Z</time>
      </trkpt>
      <trkpt lat="43.90785" lon="5.10871">
        <ele>100</ele>
        <time>2020-02-23T19:01:47Z</time>
      </trkpt>
      <trkpt lat="43.90759" lon="5.10862">
        <ele>100</ele>
        <time>2020-02-23T19:02:23Z</time>
      </trkpt>
      <trkpt lat="43.90747" lon="5.10851">
        <ele>100</ele>
        <time>2020-02-23T19:02:42Z</time>
      </trkpt>
      <trkpt lat="43.90733" lon="5.10844">
        <ele>99</ele>
        <time>2020-02-23T19:03:02Z</time>
      </trkpt>
      <trkpt lat="43.90709" lon="5.10835">
        <ele>98</ele>
        <time>2020-02-23T19:03:35Z</time>
      </trkpt>
      <trkpt lat="43.90687" lon="5.10833">
        <ele>97</ele>
        <time>2020-02-23T19:04:04Z</time>
      </trkpt>
      <trkpt lat="43.90679" lon="5.10838">
        <ele>98</ele>
        <time>2020-02-23T19:04:16Z</time>
      </trkpt>
      <trkpt lat="43.90657" lon="5.10845">
        <ele>97</ele>
        <time>2020-02-23T19:04:46Z</time>
      </trkpt>
      <trkpt lat="43.90637" lon="5.10857">
        <ele>96</ele>
        <time>2020-02-23T19:05:15Z</time>
      </trkpt>
      <trkpt lat="43.90598" lon="5.10875">
        <ele>95</ele>
        <time>2020-02-23T19:06:10Z</time>
      </trkpt>
      <trkpt lat="43.90565" lon="5.10898">
        <ele>94</ele>
        <time>2020-02-23T19:06:59Z</time>
      </trkpt>
      <trkpt lat="43.90549" lon="5.10917">
        <ele>95</ele>
        <time>2020-02-23T19:07:27Z</time>
      </trkpt>
      <trkpt lat="43.9052" lon="5.10961">
        <ele>94</ele>
        <time>2020-02-23T19:08:25Z</time>
      </trkpt>
      <trkpt lat="43.90473" lon="5.11013">
        <ele>94</ele>
        <time>2020-02-23T19:09:45Z</time>
      </trkpt>
      <trkpt lat="43.90467" lon="5.11024">
        <ele>94</ele>
        <time>2020-02-23T19:09:58Z</time>
      </trkpt>
      <trkpt lat="43.90449" lon="5.11041">
        <ele>95</ele>
        <time>2020-02-23T19:10:27Z</time>
      </trkpt>
      <trkpt lat="43.90419" lon="5.11062">
        <ele>95</ele>
        <time>2020-02-23T19:11:12Z</time>
      </trkpt>
      <trkpt lat="43.90358" lon="5.11077">
        <ele>96</ele>
        <time>2020-02-23T19:12:35Z</time>
      </trkpt>
      <trkpt lat="43.90334" lon="5.11077">
        <ele>97</ele>
        <time>2020-02-23T19:13:07Z</time>
      </trkpt>
      <trkpt lat="43.90314" lon="5.11072">
        <ele>96</ele>
        <time>2020-02-23T19:13:34Z</time>
      </trkpt>
      <trkpt lat="43.90222" lon="5.11082">
        <ele>96</ele>
        <time>2020-02-23T19:15:37Z</time>
      </trkpt>
      <trkpt lat="43.90203" lon="5.1109">
        <ele>96</ele>
        <time>2020-02-23T19:16:04Z</time>
      </trkpt>
      <trkpt lat="43.90154" lon="5.11097">
        <ele>96</ele>
        <time>2020-02-23T19:17:09Z</time>
      </trkpt>
      <trkpt lat="43.901" lon="5.11096">
        <ele>95</ele>
        <time>2020-02-23T19:18:21Z</time>
      </trkpt>
      <trkpt lat="43.90051" lon="5.1109">
        <ele>96</ele>
        <time>2020-02-23T19:19:27Z</time>
      </trkpt>
      <trkpt lat="43.90045" lon="5.11091">
        <ele>96</ele>
        <time>2020-02-23T19:19:35Z</time>
      </trkpt>
      <trkpt lat="43.90002" lon="5.11081">
        <ele>97</ele>
        <time>2020-02-23T19:20:33Z</time>
      </trkpt>
      <trkpt lat="43.89961" lon="5.11075">
        <ele>96</ele>
        <time>2020-02-23T19:21:28Z</time>
      </trkpt>
      <trkpt lat="43.89958" lon="5.11078">
        <ele>96</ele>
        <time>2020-02-23T19:21:33Z</time>
      </trkpt>
      <trkpt lat="43.89955" lon="5.11093">
        <ele>98</ele>
        <time>2020-02-23T19:21:48Z</time>
      </trkpt>
      <trkpt lat="43.89929" lon="5.11094">
        <ele>98</ele>
        <time>2020-02-23T19:22:23Z</time>
      </trkpt>
      <trkpt lat="43.89902" lon="5.11091">
        <ele>98</ele>
        <time>2020-02-23T19:22:59Z</time>
      </trkpt>
      <trkpt lat="43.89878" lon="5.11096">
        <ele>99</ele>
        <time>2020-02-23T19:23:31Z</time>
      </trkpt>
      <trkpt lat="43.89825" lon="5.11123">
        <ele>102</ele>
        <time>2020-02-23T19:24:47Z</time>
      </trkpt>
      <trkpt lat="43.89789" lon="5.11149">
        <ele>103</ele>
        <time>2020-02-23T19:25:41Z</time>
      </trkpt>
      <trkpt lat="43.89768" lon="5.11169">
        <ele>104</ele>
        <time>2020-02-23T19:26:15Z</time>
      </trkpt>
      <trkpt lat="43.89728" lon="5.11199">
        <ele>106</ele>
        <time>2020-02-23T19:27:16Z</time>
      </trkpt>
      <trkpt lat="43.89657" lon="5.11274">
        <ele>110</ele>
        <time>2020-02-23T19:29:15Z</time>
      </trkpt>
      <trkpt lat="43.89619" lon="5.11295">
        <ele>111</ele>
        <time>2020-02-23T19:30:09Z</time>
      </trkpt>
      <trkpt lat="43.89594" lon="5.11303">
        <ele>111</ele>
        <time>2020-02-23T19:30:44Z</time>
      </trkpt>
      <trkpt lat="43.89576" lon="5.11318">
        <ele>111</ele>
        <time>2020-02-23T19:31:12Z</time>
      </trkpt>
      <trkpt lat="43.89554" lon="5.11326">
        <ele>111</ele>
        <time>2020-02-23T19:31:42Z</time>
      </trkpt>
      <trkpt lat="43.89487" lon="5.1134">
        <ele>112</ele>
        <time>2020-02-23T19:33:12Z</time>
      </trkpt>
      <trkpt lat="43.89468" lon="5.1135">
        <ele>113</ele>
        <time>2020-02-23T19:33:39Z</time>
      </trkpt>
      <trkpt lat="43.8945" lon="5.11356">
        <ele>114</ele>
        <time>2020-02-23T19:34:04Z</time>
      </trkpt>
      <trkpt lat="43.89426" lon="5.11371">
        <ele>117</ele>
        <time>2020-02-23T19:34:39Z</time>
      </trkpt>
      <trkpt lat="43.89404" lon="5.11364">
        <ele>116</ele>
        <time>2020-02-23T19:35:09Z</time>
      </trkpt>
      <trkpt lat="43.89381" lon="5.11369">
        <ele>116</ele>
        <time>2020-02-23T19:35:40Z</time>
      </trkpt>
      <trkpt lat="43.89333" lon="5.11409">
        <ele>120</ele>
        <time>2020-02-23T19:36:55Z</time>
      </trkpt>
      <trkpt lat="43.89286" lon="5.11432">
        <ele>121</ele>
        <time>2020-02-23T19:38:02Z</time>
      </trkpt>
      <trkpt lat="43.89266" lon="5.11432">
        <ele>121</ele>
        <time>2020-02-23T19:38:28Z</time>
      </trkpt>
      <trkpt lat="43.89251" lon="5.11423">
        <ele>119</ele>
        <time>2020-02-23T19:38:50Z</time>
      </trkpt>
      <trkpt lat="43.8922" lon="5.11393">
        <ele>117</ele>
        <time>2020-02-23T19:39:41Z</time>
      </trkpt>
    </trkseg>
  </trk>
</gpx>